KALB

Albany International Airport

Albany, New York, USA
METAR KALB 180151Z 17008KT 10SM -TSRA FEW028 BKN038 OVC055CB 24/22 A2990 RMK AO2 LTG DSNT ALQDS RAB0055 SLP122 OCNL LTGICCG VC E-SE AND NW TS VC E-SE AND NW MOV E P0015 T02390217
Observed Flight Rules
Aug-18 @ 01:51 UTC (36 minutes ago) Visual Flight Rules
Wind Visibility Clouds Conditions
170° at 8 knots 10 miles
  • Few at 2,800' AGL
  • Broken at 3,800' AGL
  • Overcast at 5,500' AGL
  • Light Thunderstorm
  • Light Rain
Temperatures Readings Precipitation
Current 24°C / 75°F
Dewpoint 22°C / 72°F
Humidity 89%
Altimeter 29.9" Hg
Pressure 1012.2 hPa
Elevation 92
Current Rain 0.15
METAR KALB 180151Z 17008KT 10SM -TSRA FEW028 BKN038 OVC055CB 24/22 A2990 RMK AO2 LTG DSNT ALQDS RAB0055 SLP122 OCNL LTGICCG VC E-SE AND NW TS VC E-SE AND NW MOV E P0015 T02390217
Observed Flight Rules
Aug-18 @ 01:51 UTC
(36 minutes ago)
VFR
Wind Visibility
170° at 8 knots 10 miles
Clouds
  • Few at 2,800' AGL
  • Broken at 3,800' AGL
  • Overcast at 5,500' AGL
Conditions
  • Light Thunderstorm
  • Light Rain
Temperature Dewpoint
24°C / 75°F 22°C / 72°F
Humidity Altimeter Pressure
89% 29.9" Hg 1012.2 hPa
Current Rain
0.15